sensor_id;sensor_type;location;lat;lon;timestamp;P1;durP1;ratioP1;P2;durP2;ratioP2
14847;SDS011;7516;43.570;1.448;2023-07-09T00:02:08;4.35;;;3.20;;
14847;SDS011;7516;43.570;1.448;2023-07-09T00:04:36;4.88;;;3.10;;
14847;SDS011;7516;43.570;1.448;2023-07-09T00:07:03;5.13;;;3.28;;
14847;SDS011;7516;43.570;1.448;2023-07-09T00:09:32;6.38;;;3.53;;
14847;SDS011;7516;43.570;1.448;2023-07-09T00:11:59;4.47;;;3.10;;
14847;SDS011;7516;43.570;1.448;2023-07-09T00:14:27;8.40;;;3.92;;
14847;SDS011;7516;43.570;1.448;2023-07-09T00:16:54;6.93;;;3.33;;
14847;SDS011;7516;43.570;1.448;2023-07-09T00:19:22;5.40;;;3.35;;
14847;SDS011;7516;43.570;1.448;2023-07-09T00:21:50;6.50;;;3.47;;
14847;SDS011;7516;43.570;1.448;2023-07-09T00:24:18;5.68;;;3.10;;
14847;SDS011;7516;43.570;1.448;2023-07-09T00:26:47;4.47;;;3.25;;
14847;SDS011;7516;43.570;1.448;2023-07-09T00:29:15;4.07;;;3.15;;
14847;SDS011;7516;43.570;1.448;2023-07-09T00:31:42;6.95;;;3.00;;
14847;SDS011;7516;43.570;1.448;2023-07-09T00:34:10;4.63;;;2.85;;
14847;SDS011;7516;43.570;1.448;2023-07-09T00:36:38;4.80;;;2.97;;
14847;SDS011;7516;43.570;1.448;2023-07-09T00:39:09;3.58;;;3.03;;
14847;SDS011;7516;43.570;1.448;2023-07-09T00:41:40;5.20;;;3.35;;
14847;SDS011;7516;43.570;1.448;2023-07-09T00:44:18;3.92;;;3.03;;
14847;SDS011;7516;43.570;1.448;2023-07-09T00:49:50;5.53;;;3.17;;
14847;SDS011;7516;43.570;1.448;2023-07-09T00:52:23;6.90;;;3.42;;
14847;SDS011;7516;43.570;1.448;2023-07-09T00:54:53;4.30;;;3.08;;
14847;SDS011;7516;43.570;1.448;2023-07-09T00:57:21;3.47;;;2.97;;
14847;SDS011;7516;43.570;1.448;2023-07-09T00:59:52;5.47;;;3.33;;
14847;SDS011;7516;43.570;1.448;2023-07-09T01:02:21;5.93;;;3.20;;
14847;SDS011;7516;43.570;1.448;2023-07-09T01:04:49;6.07;;;3.28;;
14847;SDS011;7516;43.570;1.448;2023-07-09T01:07:17;6.03;;;3.63;;
14847;SDS011;7516;43.570;1.448;2023-07-09T01:09:44;6.75;;;3.10;;
14847;SDS011;7516;43.570;1.448;2023-07-09T01:12:12;6.35;;;3.40;;
14847;SDS011;7516;43.570;1.448;2023-07-09T01:14:41;4.15;;;3.13;;
14847;SDS011;7516;43.570;1.448;2023-07-09T01:17:10;4.22;;;2.90;;
14847;SDS011;7516;43.570;1.448;2023-07-09T01:19:38;4.78;;;3.05;;
14847;SDS011;7516;43.570;1.448;2023-07-09T01:22:10;5.20;;;3.78;;
14847;SDS011;7516;43.570;1.448;2023-07-09T01:27:31;4.00;;;3.10;;
14847;SDS011;7516;43.570;1.448;2023-07-09T01:29:59;4.72;;;3.20;;
14847;SDS011;7516;43.570;1.448;2023-07-09T01:32:27;4.50;;;3.30;;
14847;SDS011;7516;43.570;1.448;2023-07-09T01:34:58;4.63;;;3.30;;
14847;SDS011;7516;43.570;1.448;2023-07-09T01:37:32;5.38;;;3.17;;
14847;SDS011;7516;43.570;1.448;2023-07-09T01:39:59;6.43;;;3.10;;
14847;SDS011;7516;43.570;1.448;2023-07-09T01:42:26;5.93;;;3.00;;
14847;SDS011;7516;43.570;1.448;2023-07-09T01:44:54;4.35;;;3.35;;
14847;SDS011;7516;43.570;1.448;2023-07-09T01:47:22;4.63;;;2.80;;
14847;SDS011;7516;43.570;1.448;2023-07-09T01:49:49;5.63;;;3.20;;
14847;SDS011;7516;43.570;1.448;2023-07-09T01:52:22;5.80;;;3.22;;
14847;SDS011;7516;43.570;1.448;2023-07-09T01:54:51;6.18;;;3.50;;
14847;SDS011;7516;43.570;1.448;2023-07-09T01:57:19;5.05;;;3.17;;
14847;SDS011;7516;43.570;1.448;2023-07-09T01:59:48;5.15;;;3.20;;
14847;SDS011;7516;43.570;1.448;2023-07-09T02:02:15;4.32;;;3.20;;
14847;SDS011;7516;43.570;1.448;2023-07-09T02:04:48;3.85;;;3.10;;
14847;SDS011;7516;43.570;1.448;2023-07-09T02:07:15;5.65;;;3.25;;
14847;SDS011;7516;43.570;1.448;2023-07-09T02:09:43;4.72;;;3.30;;
14847;SDS011;7516;43.570;1.448;2023-07-09T02:12:12;4.15;;;2.90;;
14847;SDS011;7516;43.570;1.448;2023-07-09T02:14:40;4.60;;;2.92;;
14847;SDS011;7516;43.570;1.448;2023-07-09T02:17:07;4.80;;;3.22;;
14847;SDS011;7516;43.570;1.448;2023-07-09T02:19:35;3.97;;;3.05;;
14847;SDS011;7516;43.570;1.448;2023-07-09T02:22:02;5.43;;;3.33;;
14847;SDS011;7516;43.570;1.448;2023-07-09T02:24:30;6.50;;;3.53;;
14847;SDS011;7516;43.570;1.448;2023-07-09T02:26:58;4.85;;;3.20;;
14847;SDS011;7516;43.570;1.448;2023-07-09T02:29:27;5.30;;;3.15;;
14847;SDS011;7516;43.570;1.448;2023-07-09T02:31:56;4.13;;;3.20;;
14847;SDS011;7516;43.570;1.448;2023-07-09T02:34:24;3.40;;;2.95;;
14847;SDS011;7516;43.570;1.448;2023-07-09T02:36:51;4.90;;;3.17;;
14847;SDS011;7516;43.570;1.448;2023-07-09T02:39:18;6.40;;;3.13;;
14847;SDS011;7516;43.570;1.448;2023-07-09T02:41:46;3.65;;;3.10;;
14847;SDS011;7516;43.570;1.448;2023-07-09T02:44:13;4.47;;;3.50;;
14847;SDS011;7516;43.570;1.448;2023-07-09T02:46:42;5.00;;;3.25;;
14847;SDS011;7516;43.570;1.448;2023-07-09T02:49:09;4.47;;;3.13;;
14847;SDS011;7516;43.570;1.448;2023-07-09T02:51:37;4.70;;;3.15;;
14847;SDS011;7516;43.570;1.448;2023-07-09T02:54:04;5.88;;;4.05;;
14847;SDS011;7516;43.570;1.448;2023-07-09T02:56:32;5.90;;;3.60;;
14847;SDS011;7516;43.570;1.448;2023-07-09T02:59:00;4.45;;;3.13;;
14847;SDS011;7516;43.570;1.448;2023-07-09T03:01:27;5.47;;;3.50;;
14847;SDS011;7516;43.570;1.448;2023-07-09T03:03:56;5.55;;;3.63;;
14847;SDS011;7516;43.570;1.448;2023-07-09T03:06:25;5.90;;;3.20;;
14847;SDS011;7516;43.570;1.448;2023-07-09T03:08:52;5.28;;;3.30;;
14847;SDS011;7516;43.570;1.448;2023-07-09T03:11:20;4.68;;;3.50;;
14847;SDS011;7516;43.570;1.448;2023-07-09T03:13:47;5.53;;;3.58;;
14847;SDS011;7516;43.570;1.448;2023-07-09T03:16:15;6.65;;;3.50;;
14847;SDS011;7516;43.570;1.448;2023-07-09T03:18:44;4.20;;;3.50;;
14847;SDS011;7516;43.570;1.448;2023-07-09T03:21:13;6.18;;;3.42;;
14847;SDS011;7516;43.570;1.448;2023-07-09T03:23:40;6.68;;;3.70;;
14847;SDS011;7516;43.570;1.448;2023-07-09T03:26:08;6.18;;;3.45;;
14847;SDS011;7516;43.570;1.448;2023-07-09T03:28:35;5.25;;;3.53;;
14847;SDS011;7516;43.570;1.448;2023-07-09T03:31:02;4.45;;;3.40;;
14847;SDS011;7516;43.570;1.448;2023-07-09T03:33:29;4.57;;;3.40;;
14847;SDS011;7516;43.570;1.448;2023-07-09T03:35:57;4.10;;;3.30;;
14847;SDS011;7516;43.570;1.448;2023-07-09T03:38:25;4.75;;;3.78;;
14847;SDS011;7516;43.570;1.448;2023-07-09T03:40:53;5.40;;;3.67;;
14847;SDS011;7516;43.570;1.448;2023-07-09T03:43:21;5.13;;;3.60;;
14847;SDS011;7516;43.570;1.448;2023-07-09T03:45:48;5.55;;;3.47;;
14847;SDS011;7516;43.570;1.448;2023-07-09T03:48:16;5.95;;;3.40;;
14847;SDS011;7516;43.570;1.448;2023-07-09T03:50:45;6.03;;;3.58;;
14847;SDS011;7516;43.570;1.448;2023-07-09T03:53:13;5.05;;;3.10;;
14847;SDS011;7516;43.570;1.448;2023-07-09T03:55:42;5.55;;;3.10;;
14847;SDS011;7516;43.570;1.448;2023-07-09T03:58:10;7.65;;;3.60;;
14847;SDS011;7516;43.570;1.448;2023-07-09T04:00:37;4.43;;;3.28;;
14847;SDS011;7516;43.570;1.448;2023-07-09T04:03:05;3.58;;;3.28;;
14847;SDS011;7516;43.570;1.448;2023-07-09T04:05:33;6.43;;;3.05;;
14847;SDS011;7516;43.570;1.448;2023-07-09T04:08:00;6.97;;;3.92;;
14847;SDS011;7516;43.570;1.448;2023-07-09T04:10:28;4.95;;;3.47;;
14847;SDS011;7516;43.570;1.448;2023-07-09T04:12:57;4.00;;;2.97;;
14847;SDS011;7516;43.570;1.448;2023-07-09T04:15:24;6.20;;;3.70;;
14847;SDS011;7516;43.570;1.448;2023-07-09T04:17:51;4.88;;;3.58;;
14847;SDS011;7516;43.570;1.448;2023-07-09T04:20:20;6.60;;;3.83;;
14847;SDS011;7516;43.570;1.448;2023-07-09T04:22:47;6.50;;;3.50;;
14847;SDS011;7516;43.570;1.448;2023-07-09T04:25:15;8.38;;;3.88;;
14847;SDS011;7516;43.570;1.448;2023-07-09T04:27:42;6.03;;;4.22;;
14847;SDS011;7516;43.570;1.448;2023-07-09T04:30:12;5.75;;;3.90;;
14847;SDS011;7516;43.570;1.448;2023-07-09T04:32:39;4.80;;;4.00;;
14847;SDS011;7516;43.570;1.448;2023-07-09T04:35:08;9.27;;;4.18;;
14847;SDS011;7516;43.570;1.448;2023-07-09T04:37:36;4.65;;;3.58;;
14847;SDS011;7516;43.570;1.448;2023-07-09T04:40:04;5.88;;;3.70;;
14847;SDS011;7516;43.570;1.448;2023-07-09T04:42:32;5.93;;;3.80;;
14847;SDS011;7516;43.570;1.448;2023-07-09T04:44:59;4.95;;;3.60;;
14847;SDS011;7516;43.570;1.448;2023-07-09T04:47:28;5.55;;;3.60;;
14847;SDS011;7516;43.570;1.448;2023-07-09T04:49:55;5.53;;;3.80;;
14847;SDS011;7516;43.570;1.448;2023-07-09T04:52:22;7.05;;;3.78;;
14847;SDS011;7516;43.570;1.448;2023-07-09T04:54:50;6.68;;;3.95;;
14847;SDS011;7516;43.570;1.448;2023-07-09T04:57:17;5.07;;;3.22;;
14847;SDS011;7516;43.570;1.448;2023-07-09T04:59:44;5.40;;;3.83;;
14847;SDS011;7516;43.570;1.448;2023-07-09T05:02:11;10.10;;;4.35;;
14847;SDS011;7516;43.570;1.448;2023-07-09T05:04:40;7.10;;;3.80;;
14847;SDS011;7516;43.570;1.448;2023-07-09T05:07:07;5.30;;;3.70;;
14847;SDS011;7516;43.570;1.448;2023-07-09T05:09:34;6.57;;;3.92;;
14847;SDS011;7516;43.570;1.448;2023-07-09T05:12:02;5.30;;;3.60;;
14847;SDS011;7516;43.570;1.448;2023-07-09T05:14:29;7.68;;;3.72;;
14847;SDS011;7516;43.570;1.448;2023-07-09T05:16:57;7.32;;;3.70;;
14847;SDS011;7516;43.570;1.448;2023-07-09T05:19:24;6.55;;;4.30;;
14847;SDS011;7516;43.570;1.448;2023-07-09T05:21:52;5.03;;;3.90;;
14847;SDS011;7516;43.570;1.448;2023-07-09T05:24:20;8.30;;;3.92;;
14847;SDS011;7516;43.570;1.448;2023-07-09T05:26:47;4.82;;;3.63;;
14847;SDS011;7516;43.570;1.448;2023-07-09T05:29:14;7.18;;;3.58;;
14847;SDS011;7516;43.570;1.448;2023-07-09T05:31:41;6.13;;;4.30;;
14847;SDS011;7516;43.570;1.448;2023-07-09T05:34:08;6.40;;;4.13;;
14847;SDS011;7516;43.570;1.448;2023-07-09T05:36:36;6.00;;;4.35;;
14847;SDS011;7516;43.570;1.448;2023-07-09T05:39:04;5.43;;;3.72;;
14847;SDS011;7516;43.570;1.448;2023-07-09T05:41:31;5.43;;;4.00;;
14847;SDS011;7516;43.570;1.448;2023-07-09T05:43:59;5.00;;;3.70;;
14847;SDS011;7516;43.570;1.448;2023-07-09T05:46:26;8.63;;;3.70;;
14847;SDS011;7516;43.570;1.448;2023-07-09T05:48:53;6.55;;;3.70;;
14847;SDS011;7516;43.570;1.448;2023-07-09T05:51:20;5.95;;;3.80;;
14847;SDS011;7516;43.570;1.448;2023-07-09T05:53:49;8.25;;;4.03;;
14847;SDS011;7516;43.570;1.448;2023-07-09T05:56:18;7.03;;;3.65;;
14847;SDS011;7516;43.570;1.448;2023-07-09T05:58:45;5.63;;;3.88;;
14847;SDS011;7516;43.570;1.448;2023-07-09T06:01:12;4.57;;;3.55;;
14847;SDS011;7516;43.570;1.448;2023-07-09T06:03:40;6.40;;;3.95;;
14847;SDS011;7516;43.570;1.448;2023-07-09T06:06:07;6.00;;;4.07;;
14847;SDS011;7516;43.570;1.448;2023-07-09T06:08:35;6.85;;;3.97;;
14847;SDS011;7516;43.570;1.448;2023-07-09T06:11:03;6.88;;;3.53;;
14847;SDS011;7516;43.570;1.448;2023-07-09T06:13:32;7.63;;;4.03;;
14847;SDS011;7516;43.570;1.448;2023-07-09T06:15:59;6.78;;;4.20;;
14847;SDS011;7516;43.570;1.448;2023-07-09T06:18:27;8.75;;;4.20;;
14847;SDS011;7516;43.570;1.448;2023-07-09T06:20:56;5.72;;;4.10;;
14847;SDS011;7516;43.570;1.448;2023-07-09T06:23:24;6.38;;;4.00;;
14847;SDS011;7516;43.570;1.448;2023-07-09T06:25:51;6.22;;;4.35;;
14847;SDS011;7516;43.570;1.448;2023-07-09T06:28:19;6.22;;;4.43;;
14847;SDS011;7516;43.570;1.448;2023-07-09T06:30:48;7.13;;;4.22;;
14847;SDS011;7516;43.570;1.448;2023-07-09T06:33:16;6.40;;;4.18;;
14847;SDS011;7516;43.570;1.448;2023-07-09T06:35:46;8.48;;;4.80;;
14847;SDS011;7516;43.570;1.448;2023-07-09T06:38:14;6.47;;;4.60;;
14847;SDS011;7516;43.570;1.448;2023-07-09T06:40:41;9.02;;;4.65;;
14847;SDS011;7516;43.570;1.448;2023-07-09T06:43:08;7.97;;;5.20;;
14847;SDS011;7516;43.570;1.448;2023-07-09T06:45:36;8.07;;;5.85;;
14847;SDS011;7516;43.570;1.448;2023-07-09T06:48:05;5.97;;;4.85;;
14847;SDS011;7516;43.570;1.448;2023-07-09T06:50:32;8.30;;;6.22;;
14847;SDS011;7516;43.570;1.448;2023-07-09T06:53:00;9.23;;;6.30;;
14847;SDS011;7516;43.570;1.448;2023-07-09T06:55:27;8.55;;;6.13;;
14847;SDS011;7516;43.570;1.448;2023-07-09T06:57:55;8.65;;;6.90;;
14847;SDS011;7516;43.570;1.448;2023-07-09T07:00:22;9.18;;;6.28;;
14847;SDS011;7516;43.570;1.448;2023-07-09T07:02:49;10.68;;;6.80;;
14847;SDS011;7516;43.570;1.448;2023-07-09T07:05:18;11.05;;;6.43;;
14847;SDS011;7516;43.570;1.448;2023-07-09T07:07:45;10.13;;;7.55;;
14847;SDS011;7516;43.570;1.448;2023-07-09T07:10:13;7.55;;;6.75;;
14847;SDS011;7516;43.570;1.448;2023-07-09T07:12:41;8.70;;;7.30;;
14847;SDS011;7516;43.570;1.448;2023-07-09T07:15:09;10.70;;;7.82;;
14847;SDS011;7516;43.570;1.448;2023-07-09T07:17:36;11.18;;;8.60;;
14847;SDS011;7516;43.570;1.448;2023-07-09T07:20:04;9.38;;;7.50;;
14847;SDS011;7516;43.570;1.448;2023-07-09T07:22:33;10.00;;;8.40;;
14847;SDS011;7516;43.570;1.448;2023-07-09T07:25:00;11.98;;;9.45;;
14847;SDS011;7516;43.570;1.448;2023-07-09T07:27:27;11.00;;;8.68;;
14847;SDS011;7516;43.570;1.448;2023-07-09T07:29:55;10.07;;;9.02;;
14847;SDS011;7516;43.570;1.448;2023-07-09T07:32:22;12.00;;;9.27;;
14847;SDS011;7516;43.570;1.448;2023-07-09T07:34:50;13.15;;;10.02;;
14847;SDS011;7516;43.570;1.448;2023-07-09T07:37:18;11.25;;;10.07;;
14847;SDS011;7516;43.570;1.448;2023-07-09T07:39:47;11.55;;;10.25;;
14847;SDS011;7516;43.570;1.448;2023-07-09T07:42:14;13.18;;;9.80;;
14847;SDS011;7516;43.570;1.448;2023-07-09T07:44:41;11.77;;;10.20;;
14847;SDS011;7516;43.570;1.448;2023-07-09T07:47:09;12.23;;;10.35;;
14847;SDS011;7516;43.570;1.448;2023-07-09T07:49:37;11.70;;;10.15;;
14847;SDS011;7516;43.570;1.448;2023-07-09T07:52:05;10.82;;;9.15;;
14847;SDS011;7516;43.570;1.448;2023-07-09T07:54:33;9.60;;;8.60;;
14847;SDS011;7516;43.570;1.448;2023-07-09T07:57:02;10.43;;;9.15;;
14847;SDS011;7516;43.570;1.448;2023-07-09T07:59:29;10.80;;;9.70;;
14847;SDS011;7516;43.570;1.448;2023-07-09T08:01:59;11.55;;;9.05;;
14847;SDS011;7516;43.570;1.448;2023-07-09T08:04:27;10.18;;;9.18;;
14847;SDS011;7516;43.570;1.448;2023-07-09T08:06:54;10.40;;;9.40;;
14847;SDS011;7516;43.570;1.448;2023-07-09T08:09:22;10.60;;;8.80;;
14847;SDS011;7516;43.570;1.448;2023-07-09T08:11:49;10.52;;;9.40;;
14847;SDS011;7516;43.570;1.448;2023-07-09T08:14:18;10.40;;;8.85;;
14847;SDS011;7516;43.570;1.448;2023-07-09T08:16:45;9.90;;;8.57;;
14847;SDS011;7516;43.570;1.448;2023-07-09T08:19:13;9.55;;;8.55;;
14847;SDS011;7516;43.570;1.448;2023-07-09T08:21:40;10.25;;;9.15;;
14847;SDS011;7516;43.570;1.448;2023-07-09T08:24:07;12.88;;;9.75;;
14847;SDS011;7516;43.570;1.448;2023-07-09T08:26:34;10.82;;;9.75;;
14847;SDS011;7516;43.570;1.448;2023-07-09T08:29:03;10.52;;;8.77;;
14847;SDS011;7516;43.570;1.448;2023-07-09T08:31:32;11.20;;;9.15;;
14847;SDS011;7516;43.570;1.448;2023-07-09T08:33:59;9.65;;;7.93;;
14847;SDS011;7516;43.570;1.448;2023-07-09T08:36:27;11.57;;;9.38;;
14847;SDS011;7516;43.570;1.448;2023-07-09T08:38:55;10.82;;;9.30;;
14847;SDS011;7516;43.570;1.448;2023-07-09T08:41:25;12.05;;;10.13;;
14847;SDS011;7516;43.570;1.448;2023-07-09T08:44:01;10.00;;;9.00;;
14847;SDS011;7516;43.570;1.448;2023-07-09T08:46:35;12.35;;;10.20;;
14847;SDS011;7516;43.570;1.448;2023-07-09T08:49:03;10.85;;;9.75;;
14847;SDS011;7516;43.570;1.448;2023-07-09T08:51:40;11.50;;;10.30;;
14847;SDS011;7516;43.570;1.448;2023-07-09T08:54:09;11.02;;;9.93;;
14847;SDS011;7516;43.570;1.448;2023-07-09T08:56:40;11.93;;;10.30;;
14847;SDS011;7516;43.570;1.448;2023-07-09T08:59:08;12.38;;;11.18;;
14847;SDS011;7516;43.570;1.448;2023-07-09T09:01:38;12.73;;;11.43;;
14847;SDS011;7516;43.570;1.448;2023-07-09T09:04:07;11.77;;;10.50;;
14847;SDS011;7516;43.570;1.448;2023-07-09T09:06:37;13.02;;;10.90;;
14847;SDS011;7516;43.570;1.448;2023-07-09T09:09:08;11.77;;;10.55;;
14847;SDS011;7516;43.570;1.448;2023-07-09T09:11:41;12.05;;;10.82;;
14847;SDS011;7516;43.570;1.448;2023-07-09T09:14:17;10.35;;;9.38;;
14847;SDS011;7516;43.570;1.448;2023-07-09T09:16:47;11.02;;;9.85;;
14847;SDS011;7516;43.570;1.448;2023-07-09T09:19:16;11.48;;;10.05;;
14847;SDS011;7516;43.570;1.448;2023-07-09T09:21:45;11.93;;;9.52;;
14847;SDS011;7516;43.570;1.448;2023-07-09T09:24:14;9.90;;;8.90;;
14847;SDS011;7516;43.570;1.448;2023-07-09T09:26:42;11.68;;;10.57;;
14847;SDS011;7516;43.570;1.448;2023-07-09T09:29:10;11.15;;;9.93;;
14847;SDS011;7516;43.570;1.448;2023-07-09T09:31:38;12.52;;;10.98;;
14847;SDS011;7516;43.570;1.448;2023-07-09T09:34:16;13.20;;;10.18;;
14847;SDS011;7516;43.570;1.448;2023-07-09T09:36:43;12.27;;;9.82;;
14847;SDS011;7516;43.570;1.448;2023-07-09T09:39:10;11.25;;;9.73;;
14847;SDS011;7516;43.570;1.448;2023-07-09T09:41:38;10.63;;;9.30;;
14847;SDS011;7516;43.570;1.448;2023-07-09T09:44:05;12.30;;;9.65;;
14847;SDS011;7516;43.570;1.448;2023-07-09T09:46:32;11.68;;;9.48;;
14847;SDS011;7516;43.570;1.448;2023-07-09T09:49:00;9.90;;;8.90;;
14847;SDS011;7516;43.570;1.448;2023-07-09T09:51:29;10.50;;;9.43;;
14847;SDS011;7516;43.570;1.448;2023-07-09T09:53:57;10.70;;;9.65;;
14847;SDS011;7516;43.570;1.448;2023-07-09T09:56:26;10.73;;;9.57;;
14847;SDS011;7516;43.570;1.448;2023-07-09T09:58:54;11.75;;;9.18;;
14847;SDS011;7516;43.570;1.448;2023-07-09T10:01:24;9.88;;;8.88;;
14847;SDS011;7516;43.570;1.448;2023-07-09T10:03:54;10.45;;;8.82;;
14847;SDS011;7516;43.570;1.448;2023-07-09T10:06:25;10.52;;;9.43;;
14847;SDS011;7516;43.570;1.448;2023-07-09T10:08:56;11.63;;;10.43;;
14847;SDS011;7516;43.570;1.448;2023-07-09T10:11:28;10.80;;;8.80;;
14847;SDS011;7516;43.570;1.448;2023-07-09T10:14:00;11.65;;;10.25;;
14847;SDS011;7516;43.570;1.448;2023-07-09T10:16:29;11.40;;;10.20;;
14847;SDS011;7516;43.570;1.448;2023-07-09T10:19:03;10.32;;;9.32;;
14847;SDS011;7516;43.570;1.448;2023-07-09T10:21:32;10.80;;;9.75;;
14847;SDS011;7516;43.570;1.448;2023-07-09T10:24:04;10.15;;;9.13;;
14847;SDS011;7516;43.570;1.448;2023-07-09T10:26:36;13.50;;;9.80;;
14847;SDS011;7516;43.570;1.448;2023-07-09T10:29:14;12.77;;;10.15;;
14847;SDS011;7516;43.570;1.448;2023-07-09T10:31:46;12.63;;;11.02;;
14847;SDS011;7516;43.570;1.448;2023-07-09T10:34:18;12.77;;;9.30;;
14847;SDS011;7516;43.570;1.448;2023-07-09T10:36:57;11.93;;;10.15;;
14847;SDS011;7516;43.570;1.448;2023-07-09T10:39:31;12.57;;;11.27;;
14847;SDS011;7516;43.570;1.448;2023-07-09T10:41:59;13.35;;;11.10;;
14847;SDS011;7516;43.570;1.448;2023-07-09T10:44:28;12.02;;;10.75;;
14847;SDS011;7516;43.570;1.448;2023-07-09T10:46:57;12.65;;;11.35;;
14847;SDS011;7516;43.570;1.448;2023-07-09T10:49:27;12.70;;;11.27;;
14847;SDS011;7516;43.570;1.448;2023-07-09T10:52:00;11.40;;;10.40;;
14847;SDS011;7516;43.570;1.448;2023-07-09T10:54:32;13.88;;;11.68;;
14847;SDS011;7516;43.570;1.448;2023-07-09T10:57:02;15.25;;;11.82;;
14847;SDS011;7516;43.570;1.448;2023-07-09T10:59:31;12.35;;;10.98;;
14847;SDS011;7516;43.570;1.448;2023-07-09T11:02:11;12.70;;;11.40;;
14847;SDS011;7516;43.570;1.448;2023-07-09T11:04:43;15.00;;;11.73;;
14847;SDS011;7516;43.570;1.448;2023-07-09T11:07:12;15.10;;;11.32;;
14847;SDS011;7516;43.570;1.448;2023-07-09T11:09:41;13.05;;;11.80;;
14847;SDS011;7516;43.570;1.448;2023-07-09T11:12:17;13.15;;;11.93;;
14847;SDS011;7516;43.570;1.448;2023-07-09T11:14:46;13.43;;;12.13;;
14847;SDS011;7516;43.570;1.448;2023-07-09T11:17:14;13.13;;;11.07;;
14847;SDS011;7516;43.570;1.448;2023-07-09T11:19:42;12.32;;;10.75;;
14847;SDS011;7516;43.570;1.448;2023-07-09T11:22:14;12.18;;;10.98;;
14847;SDS011;7516;43.570;1.448;2023-07-09T11:24:47;12.90;;;11.60;;
14847;SDS011;7516;43.570;1.448;2023-07-09T11:27:17;13.38;;;12.02;;
14847;SDS011;7516;43.570;1.448;2023-07-09T11:29:45;14.60;;;11.52;;
14847;SDS011;7516;43.570;1.448;2023-07-09T11:32:17;13.63;;;12.32;;
14847;SDS011;7516;43.570;1.448;2023-07-09T11:34:45;13.75;;;11.88;;
14847;SDS011;7516;43.570;1.448;2023-07-09T11:37:13;12.35;;;11.25;;
14847;SDS011;7516;43.570;1.448;2023-07-09T11:39:44;12.77;;;11.35;;
14847;SDS011;7516;43.570;1.448;2023-07-09T11:42:27;11.82;;;10.65;;
14847;SDS011;7516;43.570;1.448;2023-07-09T11:44:57;12.00;;;10.80;;
14847;SDS011;7516;43.570;1.448;2023-07-09T11:47:27;15.15;;;11.77;;
14847;SDS011;7516;43.570;1.448;2023-07-09T11:49:56;13.02;;;11.73;;
14847;SDS011;7516;43.570;1.448;2023-07-09T11:52:25;13.15;;;11.88;;
14847;SDS011;7516;43.570;1.448;2023-07-09T11:54:54;14.65;;;11.13;;
14847;SDS011;7516;43.570;1.448;2023-07-09T11:57:22;11.50;;;10.32;;
14847;SDS011;7516;43.570;1.448;2023-07-09T11:59:50;10.75;;;9.68;;
14847;SDS011;7516;43.570;1.448;2023-07-09T12:02:18;12.32;;;11.05;;
14847;SDS011;7516;43.570;1.448;2023-07-09T12:04:49;11.45;;;10.27;;
14847;SDS011;7516;43.570;1.448;2023-07-09T12:07:17;12.40;;;11.07;;
14847;SDS011;7516;43.570;1.448;2023-07-09T12:09:46;12.07;;;10.18;;
14847;SDS011;7516;43.570;1.448;2023-07-09T12:12:19;12.30;;;10.48;;
14847;SDS011;7516;43.570;1.448;2023-07-09T12:14:46;12.23;;;11.13;;
14847;SDS011;7516;43.570;1.448;2023-07-09T12:17:15;11.68;;;10.48;;
14847;SDS011;7516;43.570;1.448;2023-07-09T12:19:42;14.65;;;11.15;;
14847;SDS011;7516;43.570;1.448;2023-07-09T12:22:10;12.02;;;10.77;;
14847;SDS011;7516;43.570;1.448;2023-07-09T12:24:42;11.52;;;10.40;;
14847;SDS011;7516;43.570;1.448;2023-07-09T12:27:17;10.60;;;9.50;;
14847;SDS011;7516;43.570;1.448;2023-07-09T12:29:46;11.18;;;9.88;;
14847;SDS011;7516;43.570;1.448;2023-07-09T12:32:16;11.93;;;10.73;;
14847;SDS011;7516;43.570;1.448;2023-07-09T12:34:46;11.57;;;10.32;;
14847;SDS011;7516;43.570;1.448;2023-07-09T12:37:14;11.73;;;9.73;;
14847;SDS011;7516;43.570;1.448;2023-07-09T12:39:42;11.38;;;10.18;;
14847;SDS011;7516;43.570;1.448;2023-07-09T12:42:14;11.98;;;10.82;;
14847;SDS011;7516;43.570;1.448;2023-07-09T12:44:42;12.02;;;10.82;;
14847;SDS011;7516;43.570;1.448;2023-07-09T12:47:12;13.63;;;12.00;;
14847;SDS011;7516;43.570;1.448;2023-07-09T12:49:42;13.32;;;10.25;;
14847;SDS011;7516;43.570;1.448;2023-07-09T12:52:12;10.93;;;9.82;;
14847;SDS011;7516;43.570;1.448;2023-07-09T12:54:40;12.30;;;9.50;;
14847;SDS011;7516;43.570;1.448;2023-07-09T12:57:13;11.65;;;10.18;;
14847;SDS011;7516;43.570;1.448;2023-07-09T12:59:42;10.77;;;9.65;;
14847;SDS011;7516;43.570;1.448;2023-07-09T13:02:14;12.30;;;10.35;;
14847;SDS011;7516;43.570;1.448;2023-07-09T13:04:43;10.68;;;9.55;;
14847;SDS011;7516;43.570;1.448;2023-07-09T13:07:25;9.88;;;8.88;;
14847;SDS011;7516;43.570;1.448;2023-07-09T13:09:54;11.77;;;8.98;;
14847;SDS011;7516;43.570;1.448;2023-07-09T13:12:28;10.05;;;8.75;;
14847;SDS011;7516;43.570;1.448;2023-07-09T13:14:56;9.85;;;8.85;;
14847;SDS011;7516;43.570;1.448;2023-07-09T13:17:27;10.10;;;9.10;;
14847;SDS011;7516;43.570;1.448;2023-07-09T13:19:55;10.77;;;8.98;;
14847;SDS011;7516;43.570;1.448;2023-07-09T13:22:24;11.43;;;8.50;;
14847;SDS011;7516;43.570;1.448;2023-07-09T13:24:51;10.40;;;9.30;;
14847;SDS011;7516;43.570;1.448;2023-07-09T13:27:18;11.68;;;8.98;;
14847;SDS011;7516;43.570;1.448;2023-07-09T13:29:46;9.82;;;8.63;;
14847;SDS011;7516;43.570;1.448;2023-07-09T13:32:14;9.02;;;7.90;;
14847;SDS011;7516;43.570;1.448;2023-07-09T13:34:42;10.73;;;9.35;;
14847;SDS011;7516;43.570;1.448;2023-07-09T13:37:12;10.10;;;9.10;;
14847;SDS011;7516;43.570;1.448;2023-07-09T13:39:40;13.35;;;8.80;;
14847;SDS011;7516;43.570;1.448;2023-07-09T13:42:09;11.65;;;8.40;;
14847;SDS011;7516;43.570;1.448;2023-07-09T13:44:38;10.32;;;8.73;;
14847;SDS011;7516;43.570;1.448;2023-07-09T13:47:07;10.02;;;8.30;;
14847;SDS011;7516;43.570;1.448;2023-07-09T13:49:35;9.02;;;8.20;;
14847;SDS011;7516;43.570;1.448;2023-07-09T13:52:02;9.63;;;8.60;;
14847;SDS011;7516;43.570;1.448;2023-07-09T13:54:32;9.48;;;8.57;;
14847;SDS011;7516;43.570;1.448;2023-07-09T13:57:03;8.88;;;8.00;;
14847;SDS011;7516;43.570;1.448;2023-07-09T13:59:30;9.98;;;8.73;;
14847;SDS011;7516;43.570;1.448;2023-07-09T14:01:58;9.32;;;8.25;;
14847;SDS011;7516;43.570;1.448;2023-07-09T14:04:26;8.77;;;7.85;;
14847;SDS011;7516;43.570;1.448;2023-07-09T14:06:54;8.65;;;7.80;;
14847;SDS011;7516;43.570;1.448;2023-07-09T14:09:21;9.73;;;8.00;;
14847;SDS011;7516;43.570;1.448;2023-07-09T14:11:50;9.35;;;7.88;;
14847;SDS011;7516;43.570;1.448;2023-07-09T14:14:19;8.80;;;7.90;;
14847;SDS011;7516;43.570;1.448;2023-07-09T14:16:46;10.70;;;7.85;;
14847;SDS011;7516;43.570;1.448;2023-07-09T14:19:14;8.63;;;7.13;;
14847;SDS011;7516;43.570;1.448;2023-07-09T14:21:42;8.57;;;7.45;;
14847;SDS011;7516;43.570;1.448;2023-07-09T14:24:16;7.93;;;7.13;;
14847;SDS011;7516;43.570;1.448;2023-07-09T14:26:44;8.30;;;7.47;;
14847;SDS011;7516;43.570;1.448;2023-07-09T14:29:13;8.15;;;7.35;;
14847;SDS011;7516;43.570;1.448;2023-07-09T14:31:40;8.77;;;7.50;;
14847;SDS011;7516;43.570;1.448;2023-07-09T14:34:16;10.15;;;7.35;;
14847;SDS011;7516;43.570;1.448;2023-07-09T14:36:44;7.90;;;7.10;;
14847;SDS011;7516;43.570;1.448;2023-07-09T14:39:11;8.45;;;7.57;;
14847;SDS011;7516;43.570;1.448;2023-07-09T14:41:39;9.30;;;7.88;;
14847;SDS011;7516;43.570;1.448;2023-07-09T14:44:11;8.82;;;7.25;;
14847;SDS011;7516;43.570;1.448;2023-07-09T14:46:43;8.75;;;7.85;;
14847;SDS011;7516;43.570;1.448;2023-07-09T14:49:11;9.98;;;7.63;;
14847;SDS011;7516;43.570;1.448;2023-07-09T14:51:38;8.15;;;7.28;;
14847;SDS011;7516;43.570;1.448;2023-07-09T14:54:08;8.98;;;7.35;;
14847;SDS011;7516;43.570;1.448;2023-07-09T14:56:37;10.35;;;7.68;;
14847;SDS011;7516;43.570;1.448;2023-07-09T14:59:04;9.63;;;7.70;;
14847;SDS011;7516;43.570;1.448;2023-07-09T15:01:32;9.65;;;7.55;;
14847;SDS011;7516;43.570;1.448;2023-07-09T15:04:00;8.55;;;7.47;;
14847;SDS011;7516;43.570;1.448;2023-07-09T15:06:34;8.50;;;7.57;;
14847;SDS011;7516;43.570;1.448;2023-07-09T15:09:02;10.57;;;7.68;;